createdAt,value
2019-05-28T00:01:18.616Z,10.30
2019-05-28T00:03:47.338Z,10.30
2019-05-28T00:06:16.132Z,10.20
2019-05-28T00:08:44.865Z,10.10
2019-05-28T00:11:13.588Z,10.20
2019-05-28T00:13:42.345Z,10.10
2019-05-28T00:16:11.142Z,10.00
2019-05-28T00:18:39.869Z,10.00
2019-05-28T00:21:08.587Z,9.90
2019-05-28T00:23:37.240Z,9.90
2019-05-28T00:26:05.987Z,9.80
2019-05-28T00:28:34.705Z,9.80
2019-05-28T00:31:03.456Z,9.70
2019-05-28T00:33:32.214Z,9.70
2019-05-28T00:36:00.865Z,9.70
2019-05-28T00:38:29.617Z,9.60
2019-05-28T00:40:58.402Z,9.60
2019-05-28T00:43:27.167Z,9.60
2019-05-28T00:45:55.950Z,9.60
2019-05-28T00:48:24.749Z,9.60
2019-05-28T00:50:53.416Z,9.60
2019-05-28T00:53:22.216Z,9.50
2019-05-28T00:55:51.433Z,9.50
2019-05-28T00:58:20.652Z,9.50
2019-05-28T01:00:52.763Z,9.50
2019-05-28T01:03:21.508Z,9.40
2019-05-28T01:05:50.252Z,9.40
2019-05-28T01:08:18.948Z,9.40
2019-05-28T01:10:47.609Z,9.40
2019-05-28T01:13:16.354Z,9.40
2019-05-28T01:15:45.009Z,9.40
2019-05-28T01:18:13.697Z,9.30
2019-05-28T01:20:42.734Z,9.30
2019-05-28T01:23:11.379Z,9.30
2019-05-28T01:25:40.306Z,9.30
2019-05-28T01:28:08.976Z,9.30
2019-05-28T01:30:53.939Z,9.30
2019-05-28T01:33:08.090Z,9.30
2019-05-28T01:35:36.780Z,9.20
2019-05-28T01:38:08.307Z,9.20
2019-05-28T01:40:36.777Z,9.20
2019-05-28T01:43:05.502Z,9.30
2019-05-28T01:45:34.219Z,9.30
2019-05-28T01:48:02.980Z,9.30
2019-05-28T01:50:31.632Z,9.30
2019-05-28T01:53:00.364Z,9.30
2019-05-28T01:55:29.085Z,9.30
2019-05-28T01:57:57.730Z,9.30
2019-05-28T02:00:26.458Z,9.30
2019-05-28T02:02:55.172Z,9.20
2019-05-28T02:05:23.900Z,9.30
2019-05-28T02:07:54.151Z,9.30
2019-05-28T02:10:22.876Z,9.30
2019-05-28T02:12:51.622Z,9.30
2019-05-28T02:15:20.937Z,9.30
2019-05-28T02:17:49.693Z,9.40
2019-05-28T02:20:18.517Z,9.50
2019-05-28T02:22:47.169Z,9.50
2019-05-28T02:25:15.995Z,9.50
2019-05-28T02:27:44.641Z,9.50
2019-05-28T02:30:15.835Z,9.60
2019-05-28T02:32:43.700Z,9.60
2019-05-28T02:35:12.925Z,9.60
2019-05-28T02:37:41.650Z,9.70
2019-05-28T02:40:11.777Z,9.80
2019-05-28T02:42:40.508Z,9.80
2019-05-28T02:45:10.026Z,9.90
2019-05-28T02:47:38.746Z,9.80
2019-05-28T02:50:08.464Z,9.90
2019-05-28T02:52:37.688Z,10.00
2019-05-28T02:55:09.090Z,10.00
2019-05-28T02:57:40.092Z,10.00
2019-05-28T03:00:14.346Z,10.00
2019-05-28T03:02:46.005Z,10.00
2019-05-28T03:05:15.128Z,10.10
2019-05-28T03:07:47.226Z,10.20
2019-05-28T03:10:18.924Z,10.10
2019-05-28T03:12:47.801Z,10.20
2019-05-28T03:15:16.725Z,10.10
2019-05-28T03:17:46.952Z,10.10
2019-05-28T03:20:15.796Z,10.10
2019-05-28T03:22:46.113Z,10.10
2019-05-28T03:25:15.039Z,10.20
2019-05-28T03:27:43.768Z,10.20
2019-05-28T03:30:12.896Z,10.20
2019-05-28T03:32:41.617Z,10.30
2019-05-28T03:35:10.396Z,10.30
2019-05-28T03:37:41.916Z,10.40
2019-05-28T03:40:12.144Z,10.40
2019-05-28T03:42:40.802Z,10.40
2019-05-28T03:45:09.864Z,10.40
2019-05-28T03:47:38.458Z,10.50
2019-05-28T03:50:08.668Z,10.50
2019-05-28T03:52:37.257Z,10.60
2019-05-28T03:55:07.547Z,10.60
2019-05-28T03:57:36.264Z,10.60
2019-05-28T04:00:05.989Z,10.70
2019-05-28T04:02:34.641Z,10.70
2019-05-28T04:05:03.369Z,10.70
2019-05-28T04:07:31.967Z,10.70
2019-05-28T04:10:01.007Z,10.70
2019-05-28T04:12:29.937Z,10.80
2019-05-28T04:14:59.026Z,10.80
2019-05-28T04:17:27.921Z,10.90
2019-05-28T04:19:56.843Z,10.90
2019-05-28T04:22:25.856Z,11.00
2019-05-28T04:25:15.492Z,11.00
2019-05-28T04:27:44.296Z,11.10
2019-05-28T04:30:13.211Z,11.20
2019-05-28T04:32:42.014Z,11.20
2019-05-28T04:35:11.044Z,11.30
2019-05-28T04:37:39.768Z,11.30
2019-05-28T04:40:09.196Z,11.40
2019-05-28T04:42:37.921Z,11.40
2019-05-28T04:45:08.349Z,11.40
2019-05-28T04:47:37.094Z,11.50
2019-05-28T04:50:06.638Z,11.50
2019-05-28T04:52:35.361Z,11.50
2019-05-28T04:55:04.613Z,11.50
2019-05-28T04:57:33.351Z,11.50
2019-05-28T05:00:02.088Z,11.50
2019-05-28T05:02:30.834Z,11.60
2019-05-28T05:04:59.580Z,11.60
2019-05-28T05:07:28.353Z,11.70
2019-05-28T05:09:57.079Z,11.70
2019-05-28T05:12:25.885Z,11.70
2019-05-28T05:14:54.549Z,11.80
2019-05-28T05:17:23.372Z,11.70
2019-05-28T05:19:51.988Z,11.70
2019-05-28T05:22:20.730Z,11.70
2019-05-28T05:24:49.368Z,11.70
2019-05-28T05:27:18.569Z,11.60
2019-05-28T05:29:47.393Z,11.60
2019-05-28T05:32:16.053Z,11.60
2019-05-28T05:34:44.822Z,11.50
2019-05-28T05:37:13.481Z,11.40
2019-05-28T05:39:42.423Z,11.40
2019-05-28T05:42:11.576Z,11.40
2019-05-28T05:44:40.268Z,11.40
2019-05-28T05:47:08.955Z,11.40
2019-05-28T05:49:37.699Z,11.40
2019-05-28T05:52:06.356Z,11.40
2019-05-28T05:54:35.140Z,11.50
2019-05-28T05:57:03.936Z,11.50
2019-05-28T05:59:32.668Z,11.50
2019-05-28T06:02:01.325Z,11.50
2019-05-28T06:04:30.080Z,11.50
2019-05-28T06:06:58.723Z,11.60
2019-05-28T06:09:27.446Z,11.60
2019-05-28T06:11:56.101Z,11.60
2019-05-28T06:14:25.171Z,11.60
2019-05-28T06:16:53.869Z,11.60
2019-05-28T06:19:22.588Z,11.70
2019-05-28T06:21:51.280Z,11.70
2019-05-28T06:24:20.009Z,11.70
2019-05-28T06:26:48.661Z,11.70
2019-05-28T06:29:17.394Z,11.80
2019-05-28T06:31:46.149Z,11.80
2019-05-28T06:34:14.955Z,11.90
2019-05-28T06:36:43.547Z,12.00
2019-05-28T06:39:12.375Z,12.00
2019-05-28T06:41:41.123Z,12.20
2019-05-28T06:44:09.857Z,12.20
2019-05-28T06:46:39.449Z,12.30
2019-05-28T06:49:08.162Z,12.30
2019-05-28T06:51:36.886Z,12.20
2019-05-28T06:54:05.616Z,12.20
2019-05-28T06:56:34.457Z,12.20
2019-05-28T06:59:03.181Z,12.20
2019-05-28T07:01:31.897Z,12.20
2019-05-28T07:04:13.534Z,12.20
2019-05-28T07:06:30.896Z,12.20
2019-05-28T07:08:59.568Z,12.20
2019-05-28T07:11:28.377Z,12.20
2019-05-28T07:13:57.065Z,12.20
2019-05-28T07:16:25.809Z,12.20
2019-05-28T07:18:54.388Z,12.30
2019-05-28T07:21:23.125Z,12.30
2019-05-28T07:23:51.916Z,12.30
2019-05-28T07:26:20.641Z,12.30
2019-05-28T07:28:49.309Z,12.30
2019-05-28T07:31:18.069Z,12.40
2019-05-28T07:33:46.724Z,12.40
2019-05-28T07:36:15.452Z,12.50
2019-05-28T07:38:44.181Z,12.50
2019-05-28T07:41:12.896Z,12.60
2019-05-28T07:43:41.496Z,12.70
2019-05-28T07:46:10.216Z,12.80
2019-05-28T07:48:39.003Z,12.90
2019-05-28T07:51:07.703Z,13.00
2019-05-28T07:53:39.995Z,13.00
2019-05-28T07:56:06.812Z,13.10
2019-05-28T07:58:35.397Z,13.20
2019-05-28T08:01:04.118Z,13.20
2019-05-28T08:03:32.783Z,13.20
2019-05-28T08:06:01.497Z,13.20
2019-05-28T08:08:30.238Z,13.30
2019-05-28T08:11:00.905Z,13.20
2019-05-28T08:13:40.222Z,13.20
2019-05-28T08:16:16.968Z,13.40
2019-05-28T08:18:30.014Z,13.40
2019-05-28T08:20:58.732Z,13.40
2019-05-28T08:23:27.458Z,13.40
2019-05-28T08:25:56.176Z,13.40
2019-05-28T08:28:24.913Z,13.50
2019-05-28T08:30:53.568Z,13.40
2019-05-28T08:33:22.290Z,13.40
2019-05-28T08:35:51.758Z,13.40
2019-05-28T08:38:20.685Z,13.30
2019-05-28T08:40:49.593Z,13.50
2019-05-28T08:43:18.356Z,13.50
2019-05-28T08:45:47.009Z,13.50
2019-05-28T08:48:15.733Z,13.60
2019-05-28T08:50:44.381Z,13.60
2019-05-28T08:53:13.109Z,13.60
2019-05-28T08:55:41.849Z,13.60
2019-05-28T08:58:10.593Z,13.50
2019-05-28T09:00:41.778Z,13.50
2019-05-28T09:03:10.879Z,13.50
2019-05-28T09:05:39.630Z,13.50
2019-05-28T09:08:08.492Z,13.50
2019-05-28T09:10:37.308Z,13.50
2019-05-28T09:13:06.030Z,13.50
2019-05-28T09:15:35.145Z,13.50
2019-05-28T09:18:04.531Z,13.60
2019-05-28T09:20:33.619Z,13.60
2019-05-28T09:23:02.341Z,13.60
2019-05-28T09:25:31.113Z,13.70
2019-05-28T09:27:59.837Z,13.70
2019-05-28T09:30:29.413Z,13.70
2019-05-28T09:32:58.288Z,13.80
2019-05-28T09:35:43.428Z,13.80
2019-05-28T09:37:57.260Z,13.80
2019-05-28T09:40:25.990Z,13.70
2019-05-28T09:42:54.649Z,13.70
2019-05-28T09:45:23.641Z,13.80
2019-05-28T09:47:55.150Z,13.80
2019-05-28T09:50:30.659Z,13.80
2019-05-28T09:52:55.253Z,13.80
2019-05-28T09:55:23.580Z,13.90
2019-05-28T09:57:52.319Z,13.90
2019-05-28T10:00:24.482Z,13.80
2019-05-28T10:02:53.232Z,13.60
2019-05-28T10:05:22.557Z,13.60
2019-05-28T10:07:51.421Z,13.50
2019-05-28T10:10:20.516Z,13.50
2019-05-28T10:12:49.172Z,13.50
2019-05-28T10:15:18.303Z,13.50
2019-05-28T10:17:47.025Z,13.50
2019-05-28T10:20:16.380Z,13.50
2019-05-28T10:22:45.177Z,13.40
2019-05-28T10:25:14.317Z,13.50
2019-05-28T10:27:59.359Z,13.40
2019-05-28T10:30:15.203Z,13.40
2019-05-28T10:32:44.005Z,13.40
2019-05-28T10:35:13.406Z,13.50
2019-05-28T10:37:42.125Z,13.50
2019-05-28T10:40:12.656Z,13.50
2019-05-28T10:42:41.399Z,13.60
2019-05-28T10:45:11.250Z,13.70
2019-05-28T10:47:39.900Z,13.80
2019-05-28T10:50:10.052Z,13.80
2019-05-28T10:52:38.775Z,13.90
2019-05-28T10:55:07.959Z,13.80
2019-05-28T10:57:36.720Z,13.80
2019-05-28T11:00:09.245Z,13.80
2019-05-28T11:02:37.993Z,13.90
2019-05-28T11:05:08.243Z,14.00
2019-05-28T11:07:36.953Z,14.00
2019-05-28T11:10:23.299Z,14.10
2019-05-28T11:12:40.175Z,14.00
2019-05-28T11:15:10.555Z,13.90
2019-05-28T11:17:39.274Z,13.90
2019-05-28T11:20:11.953Z,13.90
2019-05-28T11:22:40.737Z,13.90
2019-05-28T11:25:11.296Z,13.80
2019-05-28T11:27:40.112Z,13.70
2019-05-28T11:30:13.469Z,13.70
2019-05-28T11:32:42.194Z,13.70
2019-05-28T11:35:11.917Z,13.70
2019-05-28T11:37:40.720Z,13.70
2019-05-28T11:40:12.205Z,13.70
2019-05-28T11:42:40.910Z,13.60
2019-05-28T11:45:12.148Z,13.60
2019-05-28T11:47:41.523Z,13.60
2019-05-28T11:50:10.550Z,13.60
2019-05-28T11:52:39.274Z,13.50
2019-05-28T11:55:18.996Z,13.50
2019-05-28T11:57:47.726Z,13.50
2019-05-28T12:00:17.437Z,13.50
2019-05-28T12:02:46.257Z,13.40
2019-05-28T12:05:15.710Z,13.40
2019-05-28T12:07:44.473Z,13.40
2019-05-28T12:10:13.509Z,13.50
2019-05-28T12:12:42.234Z,13.40
2019-05-28T12:15:12.280Z,13.40
2019-05-28T12:17:44.876Z,13.40
2019-05-28T12:20:14.135Z,13.40
2019-05-28T12:22:43.058Z,13.30
2019-05-28T12:25:13.711Z,13.30
2019-05-28T12:27:42.409Z,13.30
2019-05-28T12:30:18.019Z,13.30
2019-05-28T12:32:44.904Z,13.30
2019-05-28T12:35:27.399Z,13.30
2019-05-28T12:37:49.193Z,13.30
2019-05-28T12:40:14.837Z,13.30
2019-05-28T12:42:43.566Z,13.20
2019-05-28T12:45:13.302Z,13.30
2019-05-28T12:47:42.045Z,13.20
2019-05-28T12:50:20.597Z,13.20
2019-05-28T12:52:41.787Z,13.30
2019-05-28T12:55:10.753Z,13.20
2019-05-28T12:57:39.586Z,13.20
2019-05-28T13:00:10.003Z,13.20
2019-05-28T13:02:38.766Z,13.20
2019-05-28T13:05:12.738Z,13.20
2019-05-28T13:07:41.594Z,13.20
2019-05-28T13:10:10.869Z,13.20
2019-05-28T13:12:39.604Z,13.20
2019-05-28T13:15:10.193Z,13.20
2019-05-28T13:17:38.979Z,13.20
2019-05-28T13:20:09.471Z,13.20
2019-05-28T13:22:38.482Z,13.20
2019-05-28T13:25:09.502Z,13.30
2019-05-28T13:27:38.267Z,13.20
2019-05-28T13:30:12.463Z,13.20
2019-05-28T13:32:41.873Z,13.20
2019-05-28T13:35:12.290Z,13.20
2019-05-28T13:37:41.024Z,13.20
2019-05-28T13:40:11.310Z,13.30
2019-05-28T13:42:40.024Z,13.20
2019-05-28T13:45:09.461Z,13.30
2019-05-28T13:47:38.149Z,13.20
2019-05-28T13:50:10.965Z,13.20
2019-05-28T13:52:41.112Z,13.30
2019-05-28T13:55:10.681Z,13.30
2019-05-28T13:57:40.006Z,13.30
2019-05-28T14:00:11.698Z,13.40
2019-05-28T14:02:45.030Z,13.40
2019-05-28T14:05:11.708Z,13.40
2019-05-28T14:07:40.569Z,13.40
2019-05-28T14:10:10.304Z,13.50
2019-05-28T14:12:39.106Z,13.50
2019-05-28T14:15:08.879Z,13.50
2019-05-28T14:17:37.609Z,13.50
2019-05-28T14:20:07.707Z,13.60
2019-05-28T14:22:37.209Z,13.60
2019-05-28T14:25:07.105Z,13.60
2019-05-28T14:27:36.056Z,13.60
2019-05-28T14:30:07.443Z,13.60
2019-05-28T14:32:36.202Z,13.70
2019-05-28T14:35:07.231Z,13.70
2019-05-28T14:37:35.953Z,13.80
2019-05-28T14:40:05.892Z,13.80
2019-05-28T14:42:34.626Z,13.80
2019-05-28T14:45:04.177Z,13.90
2019-05-28T14:47:32.915Z,13.90
2019-05-28T14:50:01.570Z,14.00
2019-05-28T14:52:30.297Z,14.00
2019-05-28T14:54:59.026Z,14.00
2019-05-28T14:57:28.745Z,14.00
2019-05-28T14:59:57.682Z,14.00
2019-05-28T15:02:26.382Z,14.10
2019-05-28T15:04:55.055Z,14.10
2019-05-28T15:07:23.742Z,14.10
2019-05-28T15:09:52.472Z,14.20
2019-05-28T15:12:21.210Z,14.10
2019-05-28T15:14:49.895Z,14.20
2019-05-28T15:17:18.584Z,14.20
2019-05-28T15:19:47.340Z,14.30
2019-05-28T15:22:16.021Z,14.30
2019-05-28T15:24:44.801Z,14.40
2019-05-28T15:27:13.666Z,14.40
2019-05-28T15:29:42.397Z,14.40
2019-05-28T15:32:11.166Z,14.40
2019-05-28T15:34:39.915Z,14.40
2019-05-28T15:37:08.736Z,14.40
2019-05-28T15:39:40.295Z,14.40
2019-05-28T15:42:07.896Z,14.40
2019-05-28T15:44:36.880Z,14.40
2019-05-28T15:47:05.739Z,14.40
2019-05-28T15:49:34.518Z,14.40
2019-05-28T15:52:07.883Z,14.40
2019-05-28T15:54:33.629Z,14.40
2019-05-28T15:57:02.477Z,14.50
2019-05-28T15:59:31.227Z,14.40
2019-05-28T16:01:59.895Z,14.50
2019-05-28T16:04:28.620Z,14.60
2019-05-28T16:06:57.273Z,14.60
2019-05-28T16:09:25.972Z,14.60
2019-05-28T16:11:56.778Z,14.60
2019-05-28T16:14:25.430Z,14.60
2019-05-28T16:16:54.164Z,14.60
2019-05-28T16:19:22.817Z,14.70
2019-05-28T16:21:51.465Z,14.70
2019-05-28T16:24:20.142Z,14.60
2019-05-28T16:26:48.833Z,14.60
2019-05-28T16:29:17.556Z,14.60
2019-05-28T16:34:15.408Z,14.80
2019-05-28T16:36:45.618Z,14.90
2019-05-28T16:39:14.350Z,14.90
2019-05-28T16:41:43.073Z,14.80
2019-05-28T16:44:11.841Z,14.90
2019-05-28T16:46:40.564Z,14.80
2019-05-28T16:49:09.445Z,14.80
2019-05-28T16:51:38.190Z,14.80
2019-05-28T16:54:18.761Z,14.80
2019-05-28T16:56:37.233Z,14.80
2019-05-28T16:59:07.339Z,14.80
2019-05-28T17:01:35.916Z,14.90
2019-05-28T17:04:04.742Z,15.00
2019-05-28T17:06:33.571Z,15.00
2019-05-28T17:09:02.211Z,14.90
2019-05-28T17:11:30.875Z,14.90
2019-05-28T17:13:59.601Z,14.90
2019-05-28T17:16:28.298Z,15.10
2019-05-28T17:18:57.042Z,15.10
2019-05-28T17:21:25.769Z,15.20
2019-05-28T17:23:54.509Z,15.20
2019-05-28T17:26:23.224Z,15.30
2019-05-28T17:28:51.957Z,15.30
2019-05-28T17:31:20.746Z,15.30
2019-05-28T17:33:49.437Z,15.30
2019-05-28T17:36:18.103Z,15.30
2019-05-28T17:38:46.755Z,15.20
2019-05-28T17:41:15.427Z,15.20
2019-05-28T17:43:44.108Z,15.20
2019-05-28T17:46:12.815Z,15.30
2019-05-28T17:48:41.549Z,15.30
2019-05-28T17:51:10.218Z,15.30
2019-05-28T17:53:38.945Z,15.40
2019-05-28T17:56:08.145Z,15.40
2019-05-28T17:58:36.973Z,15.40
2019-05-28T18:01:05.701Z,15.40
2019-05-28T18:03:35.364Z,15.40
2019-05-28T18:06:04.702Z,15.40
2019-05-28T18:08:33.409Z,15.40
2019-05-28T18:11:04.762Z,15.40
2019-05-28T18:13:34.545Z,15.30
2019-05-28T18:16:02.927Z,15.30
2019-05-28T18:18:31.669Z,15.30
2019-05-28T18:21:00.304Z,15.40
2019-05-28T18:23:28.964Z,15.50
2019-05-28T18:25:57.739Z,15.60
2019-05-28T18:28:26.464Z,15.60
2019-05-28T18:30:57.376Z,15.50
2019-05-28T18:33:25.521Z,15.50
2019-05-28T18:35:54.177Z,15.40
2019-05-28T18:38:22.909Z,15.50
2019-05-28T18:40:51.616Z,15.50
2019-05-28T18:43:20.321Z,15.50
2019-05-28T18:45:48.973Z,15.60
2019-05-28T18:48:17.634Z,15.50
2019-05-28T18:50:46.768Z,15.40
2019-05-28T18:53:15.442Z,15.40
2019-05-28T18:55:44.174Z,15.40
2019-05-28T18:58:12.932Z,15.40
2019-05-28T19:00:41.784Z,15.40
2019-05-28T19:03:10.449Z,15.50
2019-05-28T19:05:39.176Z,15.40
2019-05-28T19:08:07.852Z,15.40
2019-05-28T19:10:36.581Z,15.30
2019-05-28T19:13:05.241Z,15.40
2019-05-28T19:15:34.858Z,15.30
2019-05-28T19:18:03.548Z,15.40
2019-05-28T19:20:32.260Z,15.30
2019-05-28T19:23:01.024Z,15.30
2019-05-28T19:25:29.748Z,15.30
2019-05-28T19:27:58.415Z,15.30
2019-05-28T19:30:34.653Z,15.40
2019-05-28T19:33:05.178Z,15.30
2019-05-28T19:35:34.217Z,15.30
2019-05-28T19:38:03.045Z,15.30
2019-05-28T19:40:34.184Z,15.40
2019-05-28T19:43:02.851Z,15.30
2019-05-28T19:45:31.572Z,15.40
2019-05-28T19:48:00.233Z,15.30
2019-05-28T19:50:28.956Z,15.30
2019-05-28T19:52:57.714Z,15.40
2019-05-28T19:55:26.369Z,15.40
2019-05-28T19:57:55.103Z,15.40
2019-05-28T20:00:23.834Z,15.40
2019-05-28T20:02:52.595Z,15.30
2019-05-28T20:05:21.326Z,15.30
2019-05-28T20:07:49.984Z,15.40
2019-05-28T20:10:19.516Z,15.30
2019-05-28T20:12:48.191Z,15.30
2019-05-28T20:15:20.995Z,15.30
2019-05-28T20:17:48.463Z,15.30
2019-05-28T20:20:17.841Z,15.30
2019-05-28T20:22:47.754Z,15.30
2019-05-28T20:25:17.161Z,15.40
2019-05-28T20:27:45.895Z,15.40
2019-05-28T20:30:14.992Z,15.40
2019-05-28T20:32:43.725Z,15.30
2019-05-28T20:35:12.650Z,15.30
2019-05-28T20:37:41.379Z,15.40
2019-05-28T20:40:10.469Z,15.30
2019-05-28T20:42:39.157Z,15.50
2019-05-28T20:45:11.157Z,15.50
2019-05-28T20:47:39.988Z,15.40
2019-05-28T20:50:09.647Z,15.40
2019-05-28T20:52:38.381Z,15.40
2019-05-28T20:55:07.912Z,15.40
2019-05-28T20:57:36.640Z,15.40
2019-05-28T21:00:07.672Z,15.50
2019-05-28T21:02:36.403Z,15.40
2019-05-28T21:05:08.317Z,15.50
2019-05-28T21:07:37.039Z,15.60
2019-05-28T21:10:06.992Z,15.50
2019-05-28T21:12:43.749Z,15.50
2019-05-28T21:15:09.750Z,15.40
2019-05-28T21:17:38.475Z,15.20
2019-05-28T21:20:08.512Z,15.10
2019-05-28T21:22:37.438Z,14.90
2019-05-28T21:25:09.396Z,14.80
2019-05-28T21:27:38.135Z,14.70
2019-05-28T21:30:10.333Z,14.60
2019-05-28T21:32:39.163Z,14.60
2019-05-28T21:35:08.296Z,14.40
2019-05-28T21:37:37.003Z,14.40
2019-05-28T21:40:06.527Z,14.30
2019-05-28T21:42:35.561Z,14.30
2019-05-28T21:45:05.389Z,14.20
2019-05-28T21:47:34.040Z,14.10
2019-05-28T21:50:04.547Z,14.10
2019-05-28T21:52:33.019Z,14.10
2019-05-28T21:55:03.489Z,14.10
2019-05-28T21:57:32.085Z,14.00
2019-05-28T22:00:02.226Z,14.00
2019-05-28T22:02:31.148Z,13.90
2019-05-28T22:05:05.738Z,13.90
2019-05-28T22:07:30.312Z,13.90
2019-05-28T22:09:59.915Z,13.90
2019-05-28T22:12:28.736Z,13.80
2019-05-28T22:14:57.963Z,13.80
2019-05-28T22:17:26.773Z,13.90
2019-05-28T22:19:56.285Z,13.80
2019-05-28T22:22:25.009Z,13.90
2019-05-28T22:24:53.671Z,13.90
2019-05-28T22:27:22.328Z,13.90
2019-05-28T22:29:51.038Z,13.90
2019-05-28T22:32:19.748Z,13.90
2019-05-28T22:34:48.436Z,13.90
2019-05-28T22:37:17.173Z,13.90
2019-05-28T22:39:45.842Z,13.90
2019-05-28T22:42:14.574Z,13.90
2019-05-28T22:44:43.234Z,13.90
2019-05-28T22:47:12.001Z,13.90
2019-05-28T22:49:40.657Z,13.90
2019-05-28T22:52:09.388Z,13.90
2019-05-28T22:54:38.040Z,13.80
2019-05-28T22:57:06.872Z,13.70
2019-05-28T22:59:36.532Z,13.70
2019-05-28T23:02:05.364Z,13.60
2019-05-28T23:04:34.023Z,13.60
2019-05-28T23:07:03.303Z,13.50
2019-05-28T23:09:32.113Z,13.40
2019-05-28T23:12:01.597Z,13.40
2019-05-28T23:14:30.482Z,13.40
2019-05-28T23:17:00.251Z,13.20
2019-05-28T23:19:29.137Z,13.10
2019-05-28T23:21:57.857Z,13.10
2019-05-28T23:24:26.584Z,13.00
2019-05-28T23:26:55.276Z,12.90
2019-05-28T23:29:23.994Z,12.80
2019-05-28T23:31:52.647Z,12.70
2019-05-28T23:34:21.368Z,12.70
2019-05-28T23:36:50.028Z,12.70
2019-05-28T23:39:18.682Z,12.70
2019-05-28T23:41:47.463Z,12.60
2019-05-28T23:44:16.152Z,12.60
2019-05-28T23:46:44.868Z,12.60
2019-05-28T23:49:14.492Z,12.60
2019-05-28T23:51:43.255Z,12.60
2019-05-28T23:54:11.905Z,12.50
2019-05-28T23:56:40.592Z,12.50
2019-05-28T23:59:09.778Z,12.40
